createdAt,value
2023-01-22T00:01:18.236Z,38.60
2023-01-22T00:03:47.157Z,36.60
2023-01-22T00:06:15.554Z,37.50
2023-01-22T00:08:43.464Z,40.40
2023-01-22T00:11:12.290Z,36.50
2023-01-22T00:13:41.053Z,29.10
2023-01-22T00:16:11.166Z,31.50
2023-01-22T00:18:39.415Z,34.10
2023-01-22T00:21:07.481Z,32.40
2023-01-22T00:23:36.268Z,34.00
2023-01-22T00:26:07.740Z,32.10
2023-01-22T00:28:37.695Z,38.60
2023-01-22T00:31:06.457Z,36.60
2023-01-22T00:33:34.507Z,38.60
2023-01-22T00:36:07.355Z,30.10
2023-01-22T00:38:35.896Z,35.50
2023-01-22T00:41:05.068Z,37.10
2023-01-22T00:43:34.678Z,37.70
2023-01-22T00:46:02.566Z,41.70
2023-01-22T00:48:30.482Z,39.00
2023-01-22T00:50:58.511Z,38.40
2023-01-22T00:53:26.484Z,41.30
2023-01-22T00:55:56.777Z,36.20
2023-01-22T00:58:24.968Z,38.20
2023-01-22T01:00:54.148Z,35.60
2023-01-22T01:03:30.391Z,41.20
2023-01-22T01:06:07.306Z,42.40
2023-01-22T01:08:37.900Z,38.50
2023-01-22T01:11:07.921Z,37.70
2023-01-22T01:13:38.697Z,44.10
2023-01-22T01:16:20.212Z,39.70
2023-01-22T01:18:48.506Z,41.60
2023-01-22T01:21:17.281Z,40.70
2023-01-22T01:23:45.487Z,44.20
2023-01-22T01:26:15.824Z,45.90
2023-01-22T01:28:45.406Z,47.40
2023-01-22T01:31:15.834Z,42.80
2023-01-22T01:33:44.598Z,41.50
2023-01-22T01:36:13.673Z,37.90
2023-01-22T01:38:41.592Z,39.30
2023-01-22T01:41:12.943Z,35.50
2023-01-22T01:43:41.092Z,37.00
2023-01-22T01:46:22.536Z,39.70
2023-01-22T01:48:54.631Z,40.40
2023-01-22T01:51:36.215Z,37.20
2023-01-22T01:54:05.390Z,41.20
2023-01-22T01:56:47.723Z,38.60
2023-01-22T01:59:18.232Z,35.20
2023-01-22T02:01:51.320Z,39.70
2023-01-22T02:04:20.092Z,38.50
2023-01-22T02:06:48.313Z,47.90
2023-01-22T02:09:16.235Z,42.20
2023-01-22T02:11:45.467Z,41.00
2023-01-22T02:14:17.599Z,37.20
2023-01-22T02:16:45.921Z,41.00
2023-01-22T02:19:13.822Z,41.40
2023-01-22T02:21:43.561Z,40.30
2023-01-22T02:24:16.474Z,43.50
2023-01-22T02:26:46.062Z,37.30
2023-01-22T02:29:14.643Z,40.50
2023-01-22T02:31:42.587Z,39.30
2023-01-22T02:34:11.052Z,36.90
2023-01-22T02:36:39.852Z,40.40
2023-01-22T02:39:07.788Z,39.00
2023-01-22T02:41:36.017Z,40.20
2023-01-22T02:44:04.426Z,35.20
2023-01-22T02:46:32.267Z,37.10
2023-01-22T02:49:00.408Z,41.70
2023-01-22T02:51:28.485Z,37.70
2023-01-22T02:53:56.466Z,37.80
2023-01-22T02:56:24.656Z,33.50
2023-01-22T02:58:52.710Z,37.00
2023-01-22T03:01:23.477Z,39.00
2023-01-22T03:03:54.131Z,38.70
2023-01-22T03:06:24.920Z,37.90
2023-01-22T03:08:57.709Z,39.20
2023-01-22T03:11:27.395Z,50.50
2023-01-22T03:14:14.414Z,44.00
2023-01-22T03:17:01.967Z,46.10
2023-01-22T03:19:48.560Z,50.00
2023-01-22T03:22:17.384Z,54.30
2023-01-22T03:24:50.618Z,47.70
2023-01-22T03:27:20.543Z,48.70
2023-01-22T03:29:48.912Z,49.80
2023-01-22T03:32:17.018Z,54.70
2023-01-22T03:34:45.152Z,63.00
2023-01-22T03:37:13.095Z,58.40
2023-01-22T03:39:41.594Z,57.20
2023-01-22T03:42:09.471Z,55.20
2023-01-22T03:44:37.294Z,53.50
2023-01-22T03:47:05.413Z,44.20
2023-01-22T03:49:33.290Z,42.80
2023-01-22T03:52:01.020Z,47.60
2023-01-22T03:54:29.119Z,47.80
2023-01-22T03:56:57.109Z,47.10
2023-01-22T03:59:24.852Z,42.10
2023-01-22T04:01:53.822Z,38.80
2023-01-22T04:04:21.948Z,37.50
2023-01-22T04:06:49.703Z,38.30
2023-01-22T04:09:17.942Z,39.50
2023-01-22T04:11:46.129Z,39.60
2023-01-22T04:14:13.967Z,42.90
2023-01-22T04:16:41.874Z,48.40
2023-01-22T04:19:10.206Z,42.40
2023-01-22T04:21:38.135Z,42.30
2023-01-22T04:24:06.430Z,40.20
2023-01-22T04:26:34.647Z,41.20
2023-01-22T04:29:02.814Z,42.80
2023-01-22T04:31:30.928Z,46.00
2023-01-22T04:33:58.849Z,41.10
2023-01-22T04:36:28.939Z,37.80
2023-01-22T04:38:57.068Z,46.30
2023-01-22T04:41:25.015Z,37.00
2023-01-22T04:43:52.955Z,46.00
2023-01-22T04:46:21.153Z,33.90
2023-01-22T04:48:49.182Z,35.30
2023-01-22T04:51:16.997Z,35.10
2023-01-22T04:53:45.236Z,34.80
2023-01-22T04:56:13.197Z,30.70
2023-01-22T04:58:41.097Z,37.30
2023-01-22T05:01:09.384Z,40.60
2023-01-22T05:03:37.510Z,36.80
2023-01-22T05:06:05.628Z,31.20
2023-01-22T05:08:33.774Z,30.80
2023-01-22T05:11:02.836Z,27.80
2023-01-22T05:13:30.618Z,33.90
2023-01-22T05:15:58.529Z,30.80
2023-01-22T05:18:26.921Z,32.70
2023-01-22T05:20:54.654Z,42.20
2023-01-22T05:23:22.729Z,31.90
2023-01-22T05:25:55.887Z,35.20
2023-01-22T05:28:24.038Z,31.70
2023-01-22T05:30:52.158Z,26.10
2023-01-22T05:33:20.209Z,26.20
2023-01-22T05:35:58.855Z,24.70
2023-01-22T05:38:29.109Z,24.00
2023-01-22T05:40:57.090Z,23.10
2023-01-22T05:43:25.185Z,25.10
2023-01-22T05:45:53.314Z,26.70
2023-01-22T05:48:21.152Z,24.80
2023-01-22T05:50:49.254Z,21.80
2023-01-22T05:53:17.217Z,21.10
2023-01-22T05:55:44.953Z,23.10
2023-01-22T05:58:13.080Z,18.70
2023-01-22T06:00:41.067Z,16.90
2023-01-22T06:03:08.765Z,15.30
2023-01-22T06:05:37.283Z,18.10
2023-01-22T06:08:05.770Z,18.70
2023-01-22T06:10:36.614Z,21.70
2023-01-22T06:13:04.507Z,15.40
2023-01-22T06:15:32.945Z,19.00
2023-01-22T06:18:01.674Z,19.00
2023-01-22T06:20:29.727Z,18.30
2023-01-22T06:22:58.263Z,19.60
2023-01-22T06:25:26.067Z,20.00
2023-01-22T06:27:54.152Z,17.20
2023-01-22T06:30:22.615Z,23.90
2023-01-22T06:32:53.652Z,19.70
2023-01-22T06:35:21.831Z,18.00
2023-01-22T06:37:50.153Z,17.90
2023-01-22T06:40:18.358Z,18.10
2023-01-22T06:42:46.539Z,16.40
2023-01-22T06:45:15.287Z,17.90
2023-01-22T06:47:44.811Z,17.70
2023-01-22T06:50:13.592Z,17.00
2023-01-22T06:52:41.824Z,22.70
2023-01-22T06:55:10.259Z,21.50
2023-01-22T06:57:38.379Z,17.70
2023-01-22T07:00:07.378Z,21.10
2023-01-22T07:02:35.453Z,18.20
2023-01-22T07:05:03.935Z,17.90
2023-01-22T07:07:31.930Z,22.30
2023-01-22T07:10:02.028Z,20.90
2023-01-22T07:12:30.241Z,18.90
2023-01-22T07:14:58.205Z,25.20
2023-01-22T07:17:26.019Z,23.80
2023-01-22T07:19:54.271Z,20.40
2023-01-22T07:22:22.179Z,24.50
2023-01-22T07:24:49.971Z,18.60
2023-01-22T07:27:18.774Z,19.60
2023-01-22T07:29:47.880Z,24.50
2023-01-22T07:32:16.898Z,24.00
2023-01-22T07:34:44.866Z,23.80
2023-01-22T07:37:12.816Z,31.00
2023-01-22T07:39:40.595Z,30.30
2023-01-22T07:42:08.555Z,25.90
2023-01-22T07:44:40.457Z,26.90
2023-01-22T07:47:09.037Z,30.70
2023-01-22T07:49:37.227Z,28.70
2023-01-22T07:52:05.176Z,86.90
2023-01-22T07:54:36.418Z,61.10
2023-01-22T07:57:04.801Z,55.00
2023-01-22T07:59:32.819Z,42.00
2023-01-22T08:02:03.339Z,37.20
2023-01-22T08:04:31.790Z,44.50
2023-01-22T08:06:59.602Z,55.20
2023-01-22T08:09:27.591Z,43.90
2023-01-22T08:11:55.709Z,46.40
2023-01-22T08:14:23.524Z,48.40
2023-01-22T08:16:51.507Z,39.30
2023-01-22T08:19:19.534Z,39.60
2023-01-22T08:21:47.327Z,33.50
2023-01-22T08:24:15.421Z,33.00
2023-01-22T08:26:45.486Z,35.00
2023-01-22T08:29:14.778Z,36.30
2023-01-22T08:31:43.022Z,36.80
2023-01-22T08:34:11.386Z,35.40
2023-01-22T08:36:39.221Z,32.20
2023-01-22T08:39:07.173Z,38.90
2023-01-22T08:41:35.349Z,56.30
2023-01-22T08:44:03.235Z,58.10
2023-01-22T08:46:31.247Z,48.70
2023-01-22T08:48:59.292Z,48.80
2023-01-22T08:51:27.350Z,39.10
2023-01-22T08:53:55.330Z,38.50
2023-01-22T08:56:23.358Z,41.00
2023-01-22T08:58:52.166Z,38.00
2023-01-22T09:01:20.417Z,38.40
2023-01-22T09:03:49.790Z,39.00
2023-01-22T09:06:17.800Z,39.80
2023-01-22T09:08:45.756Z,36.10
2023-01-22T09:11:14.211Z,37.30
2023-01-22T09:13:42.225Z,33.20
2023-01-22T09:16:11.293Z,32.60
2023-01-22T09:18:39.899Z,28.70
2023-01-22T09:21:08.553Z,29.60
2023-01-22T09:23:36.542Z,33.30
2023-01-22T09:26:05.029Z,36.40
2023-01-22T09:28:35.830Z,36.50
2023-01-22T09:31:04.921Z,33.60
2023-01-22T09:33:33.097Z,30.00
2023-01-22T09:36:12.465Z,25.80
2023-01-22T09:38:41.268Z,33.20
2023-01-22T09:41:18.920Z,26.20
2023-01-22T09:43:54.169Z,30.10
2023-01-22T09:46:27.915Z,27.70
2023-01-22T09:49:03.479Z,29.70
2023-01-22T09:51:31.413Z,30.70
2023-01-22T09:54:01.830Z,30.00
2023-01-22T09:56:51.320Z,31.50
2023-01-22T09:59:22.332Z,29.10
2023-01-22T10:01:54.021Z,29.30
2023-01-22T10:04:25.863Z,27.10
2023-01-22T10:06:56.782Z,27.70
2023-01-22T10:09:24.840Z,27.70
2023-01-22T10:11:54.487Z,28.90
2023-01-22T10:14:24.293Z,32.70
2023-01-22T10:16:52.562Z,28.60
2023-01-22T10:19:39.871Z,26.50
2023-01-22T10:22:14.162Z,24.60
2023-01-22T10:24:42.165Z,28.90
2023-01-22T10:27:12.872Z,34.90
2023-01-22T10:29:40.928Z,24.30
2023-01-22T10:32:21.359Z,36.30
2023-01-22T10:35:20.151Z,40.00
2023-01-22T10:37:51.245Z,41.00
2023-01-22T10:40:45.382Z,30.10
2023-01-22T10:43:16.380Z,29.70
2023-01-22T10:45:55.405Z,29.00
2023-01-22T10:48:23.941Z,25.90
2023-01-22T10:51:21.654Z,25.20
2023-01-22T10:53:55.158Z,30.50
2023-01-22T10:56:40.383Z,30.60
2023-01-22T10:59:27.417Z,27.90
2023-01-22T11:01:58.748Z,27.90
2023-01-22T11:04:33.267Z,28.10
2023-01-22T11:07:15.127Z,26.60
2023-01-22T11:09:48.364Z,29.90
2023-01-22T11:12:27.037Z,24.50
2023-01-22T11:15:10.138Z,27.30
2023-01-22T11:17:41.022Z,24.40
2023-01-22T11:20:21.074Z,20.80
2023-01-22T11:23:00.106Z,22.00
2023-01-22T11:25:36.783Z,26.40
2023-01-22T11:28:12.596Z,39.60
2023-01-22T11:30:45.186Z,28.00
2023-01-22T11:33:36.427Z,46.50
2023-01-22T11:36:09.911Z,30.80
2023-01-22T11:38:49.960Z,34.20
2023-01-22T11:41:39.466Z,33.20
2023-01-22T11:44:25.790Z,39.00
2023-01-22T11:46:56.707Z,26.00
2023-01-22T11:50:00.295Z,21.40
2023-01-22T11:53:06.879Z,19.30
2023-01-22T11:56:19.382Z,22.60
2023-01-22T11:58:57.276Z,21.80
2023-01-22T12:01:40.915Z,17.70
2023-01-22T12:04:12.081Z,22.10
2023-01-22T12:07:06.229Z,21.80
2023-01-22T12:09:36.781Z,23.50
2023-01-22T12:12:23.730Z,19.90
2023-01-22T12:14:58.601Z,22.70
2023-01-22T12:18:02.808Z,31.50
2023-01-22T12:20:58.386Z,27.90
2023-01-22T12:23:31.454Z,23.10
2023-01-22T12:26:10.623Z,24.90
2023-01-22T12:29:00.864Z,23.30
2023-01-22T12:31:39.321Z,27.50
2023-01-22T12:34:14.908Z,23.40
2023-01-22T12:36:44.191Z,22.40
2023-01-22T12:39:37.104Z,22.90
2023-01-22T12:42:28.477Z,25.20
2023-01-22T12:44:59.678Z,23.20
2023-01-22T12:47:38.413Z,26.90
2023-01-22T12:50:20.728Z,27.10
2023-01-22T12:53:03.884Z,23.60
2023-01-22T12:55:44.224Z,22.30
2023-01-22T12:58:23.082Z,24.70
2023-01-22T13:01:09.508Z,23.10
2023-01-22T13:03:39.663Z,29.90
2023-01-22T13:06:40.995Z,31.60
2023-01-22T13:09:26.177Z,27.20
2023-01-22T13:14:27.684Z,34.90
2023-01-22T13:19:46.051Z,27.80
2023-01-22T13:22:25.714Z,32.50
2023-01-22T13:24:54.489Z,31.80
2023-01-22T13:27:45.879Z,30.80
2023-01-22T13:32:47.752Z,32.50
2023-01-22T13:35:19.543Z,35.50
2023-01-22T13:37:51.627Z,31.40
2023-01-22T13:40:29.297Z,30.70
2023-01-22T13:43:00.016Z,31.90
2023-01-22T13:45:30.461Z,27.10
2023-01-22T13:48:03.616Z,24.90
2023-01-22T13:50:32.627Z,23.90
2023-01-22T13:53:01.602Z,23.20
2023-01-22T13:55:30.117Z,21.90
2023-01-22T13:58:01.858Z,23.60
2023-01-22T14:00:32.037Z,21.20
2023-01-22T14:03:00.712Z,22.60
2023-01-22T14:05:32.476Z,26.20
2023-01-22T14:08:05.909Z,27.10
2023-01-22T14:10:35.068Z,27.50
2023-01-22T14:13:08.447Z,19.90
2023-01-22T14:15:37.587Z,22.40
2023-01-22T14:18:07.465Z,18.50
2023-01-22T14:20:35.483Z,24.00
2023-01-22T14:23:04.000Z,21.20
2023-01-22T14:25:32.343Z,20.80
2023-01-22T14:28:00.492Z,27.40
2023-01-22T14:30:28.706Z,26.30
2023-01-22T14:32:57.192Z,25.70
2023-01-22T14:35:26.858Z,24.00
2023-01-22T14:37:56.401Z,21.80
2023-01-22T14:40:25.848Z,23.50
2023-01-22T14:42:54.136Z,21.70
2023-01-22T14:45:22.256Z,21.30
2023-01-22T14:47:51.778Z,25.80
2023-01-22T14:50:23.740Z,23.60
2023-01-22T14:52:52.026Z,26.90
2023-01-22T14:55:20.554Z,26.50
2023-01-22T14:57:48.408Z,22.60
2023-01-22T15:00:18.888Z,24.00
2023-01-22T15:02:47.946Z,22.80
2023-01-22T15:05:16.232Z,24.40
2023-01-22T15:07:44.227Z,25.20
2023-01-22T15:10:12.174Z,26.70
2023-01-22T15:12:40.217Z,23.20
2023-01-22T15:15:09.034Z,26.00
2023-01-22T15:17:36.843Z,24.70
2023-01-22T15:20:05.405Z,22.60
2023-01-22T15:22:33.649Z,26.10
2023-01-22T15:25:01.683Z,22.60
2023-01-22T15:27:30.208Z,27.70
2023-01-22T15:29:58.398Z,28.90
2023-01-22T15:32:26.433Z,27.90
2023-01-22T15:34:54.732Z,29.00
2023-01-22T15:37:24.049Z,27.60
2023-01-22T15:39:52.623Z,26.00
2023-01-22T15:42:20.717Z,26.10
2023-01-22T15:44:49.102Z,23.40
2023-01-22T15:47:17.037Z,26.40
2023-01-22T15:49:45.039Z,28.10
2023-01-22T15:52:13.272Z,25.30
2023-01-22T15:54:41.368Z,31.00
2023-01-22T15:57:09.444Z,30.60
2023-01-22T15:59:39.018Z,27.60
2023-01-22T16:02:10.544Z,29.40
2023-01-22T16:04:38.709Z,29.90
2023-01-22T16:07:06.490Z,26.30
2023-01-22T16:09:34.536Z,28.70
2023-01-22T16:12:02.669Z,29.00
2023-01-22T16:14:31.852Z,32.50
2023-01-22T16:17:00.806Z,30.10
2023-01-22T16:19:28.871Z,27.30
2023-01-22T16:21:56.843Z,23.30
2023-01-22T16:24:24.778Z,25.70
2023-01-22T16:26:53.079Z,28.80
2023-01-22T16:29:21.251Z,30.00
2023-01-22T16:31:49.195Z,34.50
2023-01-22T16:34:19.764Z,31.70
2023-01-22T16:36:49.085Z,30.70
2023-01-22T16:39:19.402Z,27.90
2023-01-22T16:41:49.557Z,28.50
2023-01-22T16:44:20.104Z,28.30
2023-01-22T16:46:51.545Z,27.40
2023-01-22T16:49:22.554Z,32.70
2023-01-22T16:51:55.909Z,33.60
2023-01-22T16:54:29.830Z,33.60
2023-01-22T16:56:59.660Z,32.20
2023-01-22T16:59:27.849Z,25.20
2023-01-22T17:01:59.521Z,30.30
2023-01-22T17:04:28.561Z,29.10
2023-01-22T17:06:58.354Z,27.50
2023-01-22T17:09:28.650Z,31.90
2023-01-22T17:12:00.624Z,32.30
2023-01-22T17:14:30.047Z,29.40
2023-01-22T17:16:59.230Z,27.80
2023-01-22T17:19:27.174Z,29.10
2023-01-22T17:21:57.878Z,26.70
2023-01-22T17:24:27.228Z,22.10
2023-01-22T17:26:58.399Z,27.10
2023-01-22T17:29:26.705Z,26.10
2023-01-22T17:31:56.143Z,26.30
2023-01-22T17:34:24.440Z,28.70
2023-01-22T17:36:52.844Z,26.50
2023-01-22T17:39:21.231Z,27.60
2023-01-22T17:41:49.234Z,25.00
2023-01-22T17:44:17.225Z,28.10
2023-01-22T17:46:45.071Z,27.00
2023-01-22T17:49:13.189Z,27.80
2023-01-22T17:51:41.722Z,28.10
2023-01-22T17:54:10.035Z,31.90
2023-01-22T17:56:45.563Z,32.10
2023-01-22T17:59:13.453Z,34.10
2023-01-22T18:01:41.607Z,31.40
2023-01-22T18:04:11.965Z,35.30
2023-01-22T18:06:41.413Z,39.20
2023-01-22T18:09:10.718Z,38.80
2023-01-22T18:11:39.640Z,33.70
2023-01-22T18:14:11.358Z,29.50
2023-01-22T18:16:41.107Z,29.10
2023-01-22T18:19:09.052Z,27.50
2023-01-22T18:21:38.634Z,29.80
2023-01-22T18:24:08.224Z,30.60
2023-01-22T18:26:37.372Z,30.70
2023-01-22T18:29:06.170Z,30.00
2023-01-22T18:31:34.695Z,28.80
2023-01-22T18:34:04.564Z,26.00
2023-01-22T18:36:35.583Z,27.30
2023-01-22T18:39:07.638Z,29.40
2023-01-22T18:41:36.618Z,31.00
2023-01-22T18:44:04.644Z,34.50
2023-01-22T18:46:34.386Z,31.20
2023-01-22T18:49:08.308Z,30.50
2023-01-22T18:51:36.732Z,30.10
2023-01-22T18:54:05.413Z,28.70
2023-01-22T18:56:34.177Z,29.90
2023-01-22T18:59:02.310Z,29.40
2023-01-22T19:01:33.738Z,27.80
2023-01-22T19:04:07.657Z,29.90
2023-01-22T19:06:38.534Z,32.90
2023-01-22T19:09:12.645Z,45.80
2023-01-22T19:11:43.203Z,45.40
2023-01-22T19:14:14.739Z,41.50
2023-01-22T19:16:48.371Z,38.30
2023-01-22T19:19:17.312Z,38.80
2023-01-22T19:21:47.650Z,38.10
2023-01-22T19:24:17.678Z,36.70
2023-01-22T19:26:46.782Z,33.60
2023-01-22T19:29:17.777Z,35.40
2023-01-22T19:31:48.122Z,38.60
2023-01-22T19:34:23.815Z,35.40
2023-01-22T19:36:57.590Z,35.50
2023-01-22T19:39:26.230Z,32.90
2023-01-22T19:41:55.026Z,32.10
2023-01-22T19:44:23.233Z,31.40
2023-01-22T19:46:51.265Z,36.80
2023-01-22T19:49:19.937Z,40.50
2023-01-22T19:51:48.735Z,40.80
2023-01-22T19:54:17.671Z,41.80
2023-01-22T19:56:46.059Z,46.20
2023-01-22T19:59:17.279Z,35.60
2023-01-22T20:01:47.160Z,33.20
2023-01-22T20:04:21.514Z,32.40
2023-01-22T20:06:52.278Z,31.40
2023-01-22T20:09:22.006Z,46.70
2023-01-22T20:11:56.340Z,35.00
2023-01-22T20:14:29.686Z,33.80
2023-01-22T20:16:59.514Z,33.00
2023-01-22T20:19:28.433Z,35.20
2023-01-22T20:21:56.673Z,32.10
2023-01-22T20:24:27.504Z,37.80
2023-01-22T20:26:57.324Z,32.40
2023-01-22T20:29:26.416Z,39.00
2023-01-22T20:31:54.863Z,33.00
2023-01-22T20:34:23.126Z,35.10
2023-01-22T20:36:51.354Z,36.80
2023-01-22T20:39:19.943Z,33.80
2023-01-22T20:41:48.091Z,38.30
2023-01-22T20:44:16.461Z,37.00
2023-01-22T20:46:44.878Z,39.80
2023-01-22T20:49:13.427Z,40.70
2023-01-22T20:51:42.796Z,42.00
2023-01-22T20:54:11.292Z,38.70
2023-01-22T20:56:39.123Z,36.70
2023-01-22T20:59:10.866Z,29.30
2023-01-22T21:01:39.318Z,37.40
2023-01-22T21:04:07.599Z,33.50
2023-01-22T21:06:36.553Z,27.10
2023-01-22T21:09:04.963Z,33.20
2023-01-22T21:11:34.426Z,37.70
2023-01-22T21:14:05.174Z,35.30
2023-01-22T21:16:35.206Z,27.90
2023-01-22T21:19:06.635Z,31.20
2023-01-22T21:21:35.593Z,32.40
2023-01-22T21:24:03.806Z,30.50
2023-01-22T21:26:33.075Z,34.40
2023-01-22T21:29:08.579Z,34.20
2023-01-22T21:31:37.386Z,31.90
2023-01-22T21:34:08.136Z,33.00
2023-01-22T21:36:45.173Z,31.40
2023-01-22T21:39:16.126Z,29.40
2023-01-22T21:41:45.200Z,28.70
2023-01-22T21:44:33.641Z,30.00
2023-01-22T21:47:02.381Z,27.00
2023-01-22T21:49:30.908Z,33.80
2023-01-22T21:52:09.461Z,35.70
2023-01-22T21:54:39.937Z,25.00
2023-01-22T21:57:11.107Z,28.00
2023-01-22T21:59:39.082Z,30.70
2023-01-22T22:02:10.171Z,32.10
2023-01-22T22:04:38.956Z,25.00
2023-01-22T22:07:07.171Z,35.80
2023-01-22T22:09:34.927Z,32.20
2023-01-22T22:12:03.922Z,31.40
2023-01-22T22:14:33.046Z,30.50
2023-01-22T22:17:00.924Z,26.90
2023-01-22T22:19:29.114Z,25.00
2023-01-22T22:21:57.168Z,32.80
2023-01-22T22:24:26.018Z,31.30
2023-01-22T22:26:54.123Z,32.10
2023-01-22T22:29:22.220Z,30.00
2023-01-22T22:31:50.191Z,30.00
2023-01-22T22:34:18.517Z,31.60
2023-01-22T22:36:46.396Z,29.70
2023-01-22T22:39:14.659Z,27.20
2023-01-22T22:41:42.855Z,26.60
2023-01-22T22:44:11.720Z,25.70
2023-01-22T22:46:40.051Z,32.70
2023-01-22T22:49:11.887Z,31.10
2023-01-22T22:51:41.817Z,31.30
2023-01-22T22:54:15.792Z,31.20
2023-01-22T22:56:45.792Z,30.40
2023-01-22T22:59:14.485Z,29.10
2023-01-22T23:01:42.377Z,29.30
2023-01-22T23:04:11.655Z,29.60
2023-01-22T23:06:42.841Z,36.70
2023-01-22T23:09:17.190Z,33.10
2023-01-22T23:11:45.942Z,30.70
2023-01-22T23:14:13.856Z,33.70
2023-01-22T23:16:43.162Z,29.40
2023-01-22T23:19:17.228Z,28.50
2023-01-22T23:21:45.991Z,29.50
2023-01-22T23:24:14.371Z,28.50
2023-01-22T23:26:44.087Z,33.20
2023-01-22T23:29:14.829Z,33.30
2023-01-22T23:31:43.143Z,34.30
2023-01-22T23:34:16.596Z,34.00
2023-01-22T23:36:45.832Z,33.20
2023-01-22T23:39:15.712Z,29.60
2023-01-22T23:41:43.645Z,29.20
2023-01-22T23:44:11.929Z,35.20
2023-01-22T23:46:40.252Z,35.80
2023-01-22T23:49:08.576Z,28.10
2023-01-22T23:51:38.490Z,29.40
2023-01-22T23:54:07.415Z,35.30
2023-01-22T23:56:35.780Z,31.20
2023-01-22T23:59:04.510Z,34.20
